• Join FlightAware (Why Join?)
  • Login
  • US Flag 
09:22AM EDT


 

Airport Tracker/Info


-or-


 

Live Flight TrackerFlight Track Log ✈ N700HL ✈ 05-Mar-2012 ✈ KCFD - KSAT

Flight Track Log - Related Links

Times and Time Zones

All times are in EST time to prevent confusion due to time zone crossing. See the N700HL flight status page for this flight to view local times or setup timezone preferences in your user account.

Time Position Orientation Groundspeed Altitude Reporting Facility
EST Latitude Longitude Course Direction KTS MPH feet Rate Location/Type
01:49PM 30.7000 -96.3236 136° Southeast 163 188 1,000  Level Houston Center
01:50PM 30.6800 -96.3011 222° Southwest 118 136 2,600 1,740 Climbing Houston Center
01:51PM 30.6539 -96.3289 254° West 98 113 4,800 1,500 Climbing Houston Center
01:52PM 30.6444 -96.3669 252° West 124 143 6,200 1,560 Climbing Houston Center
01:53PM 30.6325 -96.4097 249° West 143 165 8,000 1,800 Climbing Houston Center
01:54PM 30.6183 -96.4525 245° Southwest 148 170 9,900 1,800 Climbing Houston Center
01:55PM 30.6022 -96.4928 253° West 148 170 11,700 1,020 Climbing Houston Center
01:56PM 30.5878 -96.5475 257° West 165 190 12,000 120 Climbing Houston Center
01:57PM 30.5725 -96.6217 257° West 196 226 12,000  Level Houston Center
01:58PM 30.5575 -96.6956 257° West 233 268 12,000  Level Houston Center
01:59PM 30.5419 -96.7719 255° West 245 282 12,000  Level Houston Center
02:00PM 30.5244 -96.8458 258° West 240 276 12,000  Level Houston Center
02:01PM 30.5114 -96.9150 257° West 234 269 12,000  Level Houston Center
02:02PM 30.4961 -96.9889 253° West 234 269 12,000  Level Houston Center
02:03PM 30.4789 -97.0553 255° West 230 265 12,000  Level Houston Center
02:04PM 30.4636 -97.1194 228° Southwest 230 265 12,000 -660 Level Houston Center
02:05PM 30.4175 -97.1797 229° Southwest 230 265 10,700 -1,080 Descending Houston Center
02:06PM 30.3711 -97.2419 228° Southwest 257 296 9,900 -900 Descending Houston Center
02:07PM 30.3247 -97.3019 230° Southwest 252 290 9,000 -960 Descending Houston Center
02:08PM 30.2806 -97.3619 229° Southwest 252 290 8,000 -960 Descending Houston Center
02:09PM 30.2297 -97.4289 227° Southwest 252 290 7,100 -900 Descending Houston Center
02:10PM 30.1836 -97.4864 231° Southwest 252 290 6,200 -600 Descending Houston Center
02:11PM 30.1414 -97.5464 227° Southwest 252 290 6,000 -120 Descending Houston Center
02:12PM 30.0994 -97.5992 230° Southwest 247 284 6,000  Level Houston Center
02:13PM 30.0617 -97.6519 229° Southwest 242 278 6,000  Level Houston Center
02:15PM 29.9972 -97.7369 226° Southwest 225 259 6,000  Level Houston Center
02:16PM 29.9531 -97.7894 230° Southwest 227 261 6,000  Level Houston Center
02:17PM 29.9089 -97.8492 238° Southwest 226 260 6,000  Level Houston Center
02:18PM 29.8767 -97.9094 247° West 228 262 6,000  Level Houston Center
02:19PM 29.8506 -97.9794 239° Southwest 230 265 6,000  Level Houston Center
02:20PM 29.8183 -98.0422 247° West 230 265 6,000  Level Houston Center
02:21PM 29.7947 -98.1053 244° Southwest 230 265 6,000  Level Houston Center
02:22PM 29.7689 -98.1658 243° Southwest 229 264 6,000  Level Houston Center
02:23PM 29.7406 -98.2308 244° Southwest 228 262 6,000 -420 Level Houston Center
02:24PM 29.7125 -98.2961 251° West 234 269 5,200 -540 Descending Houston Center
02:25PM 29.6925 -98.3642 278° West 222 255 5,000 -120 Descending Houston Center
02:26PM 29.7014 -98.4364 280° West 219 252 5,000 -480 Level Houston Center
02:27PM 29.7122 -98.5086 250° West 231 266 4,100 -660 Descending Houston Center
02:28PM 29.6925 -98.5694 234° Southwest 204 235 3,700 -600 Descending Houston Center
02:29PM 29.6631 -98.6153 173° South 174 200 2,900 -480 Descending Houston Center
02:30PM 29.6319 -98.6108 128° Southeast 168 193 2,800 -60 Descending Houston Center
02:31PM 29.6047 -98.5708 134° Southeast 135 155 2,800 -300 Level Houston Center
02:32PM 29.5792 -98.5406 134° Southeast 144 166 2,300 -600 Descending Houston Center